Time;durP1;ratioP1;P1;durP2;ratioP2;P2;SDS_P1;SDS_P2;PMS_P1;PMS_P2;Temp;Humidity;BMP_temperature;BMP_pressure;BME280_temperature;BME280_humidity;BME280_pressure;Samples;Min_cycle;Max_cycle;Signal;HPM_P1;HPM_P2
2020/12/16 00:03:48;;;;;;;30.97;12.87;;;8.90;99.90;;;;;;8248919;28;20470;-71
2020/12/16 00:07:50;;;;;;;30.00;12.10;;;8.80;99.90;;;;;;8245813;28;20085;-71
2020/12/16 00:11:51;;;;;;;36.17;13.00;;;8.90;99.90;;;;;;8236461;28;20554;-72
2020/12/16 00:15:53;;;;;;;34.37;12.70;;;7.70;99.90;;;;;;8224204;28;20046;-72
2020/12/16 00:19:54;;;;;;;29.48;11.55;;;8.80;99.90;;;;;;8239525;28;20050;-72
2020/12/16 00:24:05;;;;;;;33.37;12.23;;;8.70;99.90;;;;;;8254078;28;20590;-72
2020/12/16 00:28:07;;;;;;;32.13;12.07;;;8.70;99.90;;;;;;8229314;28;20404;-72
2020/12/16 00:32:08;;;;;;;27.50;11.20;;;8.80;99.90;;;;;;8250468;28;20462;-71
2020/12/16 00:36:10;;;;;;;21.55;11.43;;;8.80;99.90;;;;;;8247948;28;20549;-71
2020/12/16 00:40:13;;;;;;;24.77;11.50;;;8.80;99.90;;;;;;8230294;28;20203;-71
2020/12/16 00:44:15;;;;;;;35.60;13.30;;;8.70;99.90;;;;;;8251720;28;20054;-71
2020/12/16 00:48:17;;;;;;;33.55;12.65;;;8.90;99.90;;;;;;8235655;28;20049;-71
2020/12/16 00:52:19;;;;;;;31.57;11.90;;;8.80;99.90;;;;;;8252293;28;20046;-70
2020/12/16 00:56:21;;;;;;;32.05;12.25;;;8.90;99.90;;;;;;8248558;28;20108;-70
2020/12/16 01:00:22;;;;;;;30.63;12.18;;;8.70;99.90;;;;;;8235257;28;20042;-71
2020/12/16 01:04:29;;;;;;;27.75;11.48;;;8.70;99.90;;;;;;8222688;28;20051;-71
2020/12/16 01:08:31;;;;;;;31.50;13.63;;;8.70;99.90;;;;;;8222326;28;20038;-71
2020/12/16 01:12:41;;;;;;;27.38;10.15;;;8.70;99.90;;;;;;8253204;28;20145;-71
2020/12/16 01:16:43;;;;;;;25.73;10.15;;;8.90;99.90;;;;;;8244724;28;20057;-71
2020/12/16 01:20:49;;;;;;;23.30;10.02;;;8.90;99.90;;;;;;8238233;28;20046;-71
2020/12/16 01:25:01;;;;;;;30.40;12.23;;;8.50;99.90;;;;;;8253254;28;20053;-71
2020/12/16 01:29:03;;;;;;;27.38;12.45;;;7.70;99.90;;;;;;8225963;28;20069;-71
2020/12/16 01:33:07;;;;;;;34.80;14.05;;;8.60;99.90;;;;;;8239964;28;20046;-70
2020/12/16 01:37:09;;;;;;;38.40;13.10;;;8.60;99.90;;;;;;8226940;28;20083;-71
2020/12/16 01:41:20;;;;;;;30.77;12.30;;;8.70;99.90;;;;;;8253491;28;20060;-70
2020/12/16 01:45:23;;;;;;;31.92;12.60;;;8.60;99.90;;;;;;8238310;28;20054;-70
2020/12/16 01:49:27;;;;;;;28.52;11.88;;;8.60;99.90;;;;;;8237480;28;20419;-71
2020/12/16 01:53:32;;;;;;;28.73;11.63;;;8.70;99.90;;;;;;8251828;28;20695;-71
2020/12/16 01:57:37;;;;;;;31.52;12.25;;;8.70;99.90;;;;;;8228757;28;20519;-71
2020/12/16 02:01:53;;;;;;;35.80;12.85;;;8.70;99.90;;;;;;8252328;28;20042;-71
2020/12/16 02:05:57;;;;;;;35.88;12.15;;;8.70;99.90;;;;;;8253002;28;20061;-71
2020/12/16 02:10:01;;;;;;;29.27;11.82;;;8.80;99.90;;;;;;8220139;28;20701;-71
2020/12/16 02:14:08;;;;;;;29.00;11.63;;;8.70;99.90;;;;;;8226748;28;20488;-71
2020/12/16 02:18:14;;;;;;;32.28;12.88;;;8.90;99.90;;;;;;8239033;28;20049;-71
2020/12/16 02:22:17;;;;;;;45.08;14.20;;;8.90;99.90;;;;;;8240597;28;20050;-72
2020/12/16 02:26:18;;;;;;;34.13;14.73;;;8.70;99.90;;;;;;8257494;28;20439;-71
2020/12/16 02:30:29;;;;;;;38.03;14.95;;;9.00;99.90;;;;;;8235674;28;20069;-71
2020/12/16 02:34:58;;;;;;;36.90;15.70;;;8.70;99.90;;;;;;8259078;28;20065;-72
2020/12/16 02:39:00;;;;;;;43.95;16.02;;;8.70;99.90;;;;;;8229478;28;20085;-71
2020/12/16 02:43:11;;;;;;;45.50;16.55;;;8.70;99.90;;;;;;8242572;28;20054;-71
2020/12/16 02:47:13;;;;;;;41.03;16.25;;;8.80;99.90;;;;;;8232231;28;20064;-71
2020/12/16 02:51:17;;;;;;;47.58;17.55;;;8.90;99.90;;;;;;8236710;28;20125;-71
2020/12/16 02:55:34;;;;;;;50.22;19.10;;;8.80;99.90;;;;;;8243241;28;20069;-71
2020/12/16 02:59:38;;;;;;;52.17;18.42;;;9.00;99.90;;;;;;8252960;28;20057;-71
2020/12/16 03:04:05;;;;;;;59.45;18.67;;;7.30;99.90;;;;;;8249518;28;20042;-71
2020/12/16 03:08:31;;;;;;;50.75;18.50;;;8.80;99.90;;;;;;8243897;28;20046;-71
2020/12/16 03:12:37;;;;;;;55.20;18.90;;;8.40;99.90;;;;;;8232127;28;20050;-72
2020/12/16 03:16:39;;;;;;;55.30;19.40;;;8.90;99.90;;;;;;8239302;28;20046;-71
2020/12/16 03:20:49;;;;;;;61.65;20.42;;;8.70;99.90;;;;;;8232733;28;20064;-72
2020/12/16 03:24:50;;;;;;;67.47;19.33;;;8.60;99.90;;;;;;8220895;28;20515;-72
2020/12/16 03:29:03;;;;;;;;;;;8.90;99.90;;;;;;8247986;28;20038;-71
2020/12/16 03:33:43;;;;;;;58.78;20.00;;;8.70;99.90;;;;;;8223917;28;19957;-71
2020/12/16 03:38:10;;;;;;;67.82;20.70;;;8.60;99.90;;;;;;8226933;28;20062;-71
2020/12/16 03:42:13;;;;;;;69.45;22.13;;;9.30;99.90;;;;;;8242945;28;20044;-71
2020/12/16 03:46:16;;;;;;;74.88;23.13;;;9.00;99.90;;;;;;8252464;28;20046;-71
2020/12/16 03:50:18;;;;;;;71.70;21.80;;;8.70;99.90;;;;;;8229432;28;20090;-71
2020/12/16 03:54:23;;;;;;;69.20;22.67;;;8.90;99.90;;;;;;8218822;28;20450;-71
2020/12/16 03:58:45;;;;;;;67.85;23.10;;;8.70;99.90;;;;;;8249773;28;20058;-71
2020/12/16 04:02:55;;;;;;;70.03;21.92;;;8.70;99.90;;;;;;8245388;28;20096;-72
2020/12/16 04:07:14;;;;;;;63.75;22.00;;;8.70;99.90;;;;;;8231704;28;20050;-70
2020/12/16 04:11:27;;;;;;;65.28;22.40;;;8.90;99.90;;;;;;8223483;28;20050;-71
2020/12/16 04:15:37;;;;;;;64.55;22.40;;;8.70;99.90;;;;;;8262977;28;20146;-71
2020/12/16 04:19:39;;;;;;;69.25;22.08;;;8.90;99.90;;;;;;8235986;28;20080;-71
2020/12/16 04:23:43;;;;;;;67.83;21.40;;;9.00;99.90;;;;;;8246842;28;20423;-71
2020/12/16 04:28:03;;;;;;;60.88;22.08;;;8.80;99.90;;;;;;8237320;28;20050;-71
2020/12/16 04:32:05;;;;;;;62.70;21.73;;;8.60;99.90;;;;;;8227508;28;20126;-71
2020/12/16 04:36:14;;;;;;;72.25;23.55;;;8.80;99.90;;;;;;8241012;28;20107;-71
2020/12/16 04:40:18;;;;;;;69.47;22.73;;;8.80;99.90;;;;;;8242629;28;20435;-72
2020/12/16 04:44:20;;;;;;;67.65;23.75;;;8.70;99.90;;;;;;8248005;28;20042;-70
2020/12/16 04:48:29;;;;;;;63.42;21.58;;;9.00;99.90;;;;;;8244250;28;20042;-71
2020/12/16 04:52:53;;;;;;;70.55;23.77;;;8.80;99.90;;;;;;8242527;28;20054;-70
2020/12/16 04:57:06;;;;;;;62.65;22.30;;;9.00;99.90;;;;;;8240828;28;20105;-70
2020/12/16 05:01:13;;;;;;;67.03;23.08;;;9.10;99.90;;;;;;8236646;28;20053;-70
2020/12/16 05:05:23;;;;;;;67.78;23.15;;;9.00;99.90;;;;;;8247819;28;20054;-70
2020/12/16 05:09:24;;;;;;;63.60;21.60;;;9.00;99.90;;;;;;8255918;28;20086;-71
2020/12/16 05:13:27;;;;;;;67.77;21.60;;;9.00;99.90;;;;;;8237649;28;20702;-71
2020/12/16 05:17:28;;;;;;;56.70;20.90;;;8.80;99.90;;;;;;8255692;28;20050;-71
2020/12/16 05:21:42;;;;;;;70.15;24.38;;;8.80;99.90;;;;;;8263258;28;20042;-71
2020/12/16 05:26:02;;;;;;;58.27;22.47;;;9.30;99.90;;;;;;8251705;28;20165;-71
2020/12/16 05:30:06;;;;;;;55.63;21.13;;;8.80;99.90;;;;;;8257609;28;20051;-71
2020/12/16 05:34:08;;;;;;;67.85;21.02;;;9.00;99.90;;;;;;8252370;28;20076;-71
2020/12/16 05:38:10;;;;;;;55.38;21.35;;;8.90;99.90;;;;;;8252917;28;20057;-71
2020/12/16 05:42:15;;;;;;;61.38;21.67;;;9.00;99.90;;;;;;8254614;28;20042;-71
2020/12/16 05:46:26;;;;;;;61.53;20.90;;;9.90;99.90;;;;;;8233985;28;20423;-70
2020/12/16 05:50:51;;;;;;;58.53;19.90;;;9.00;99.90;;;;;;8255232;28;20077;-71
2020/12/16 05:54:52;;;;;;;62.15;22.60;;;8.80;99.90;;;;;;8257032;28;20038;-70
2020/12/16 05:58:54;;;;;;;54.75;20.65;;;8.80;99.90;;;;;;8246010;28;20046;-71
2020/12/16 06:02:59;;;;;;;52.27;21.13;;;8.70;99.90;;;;;;8265761;28;20058;-70
2020/12/16 06:07:04;;;;;;;48.00;20.35;;;8.70;99.90;;;;;;8254668;28;20468;-71
2020/12/16 06:11:08;;;;;;;53.55;20.52;;;8.70;99.90;;;;;;8254431;28;20050;-71
2020/12/16 06:15:12;;;;;;;54.55;19.58;;;8.90;99.90;;;;;;8238047;28;20057;-71
2020/12/16 06:19:25;;;;;;;54.15;21.02;;;8.90;99.90;;;;;;8245632;28;20050;-71
2020/12/16 06:23:40;;;;;;;59.25;22.13;;;8.70;99.90;;;;;;8260553;28;20149;-71
2020/12/16 06:27:48;;;;;;;54.92;20.52;;;8.60;99.90;;;;;;8254369;28;20066;-72
2020/12/16 06:31:51;;;;;;;55.03;21.50;;;8.70;99.90;;;;;;8235450;28;20046;-70
2020/12/16 06:35:58;;;;;;;;;;;8.50;99.90;;;;;;8240419;28;20142;-70
2020/12/16 06:39:59;;;;;;;58.60;21.02;;;8.50;99.90;;;;;;8261219;28;20391;-70
2020/12/16 06:44:11;;;;;;;55.25;19.92;;;8.70;99.90;;;;;;8244747;28;20447;-71
2020/12/16 06:48:32;;;;;;;53.97;19.63;;;8.70;99.90;;;;;;8255558;28;20099;-71
2020/12/16 06:52:34;;;;;;;51.73;19.17;;;8.60;99.90;;;;;;8253761;28;20054;-72
2020/12/16 06:56:36;;;;;;;54.47;20.43;;;8.70;99.90;;;;;;8228824;28;20483;-71
2020/12/16 07:00:37;;;;;;;;;;;8.50;99.90;;;;;;8263559;28;20057;-71
2020/12/16 07:04:39;;;;;;;53.63;19.88;;;8.50;99.90;;;;;;8250675;28;20303;-71
2020/12/16 07:08:41;;;;;;;43.70;18.88;;;8.80;99.90;;;;;;8239043;28;20050;-71
2020/12/16 07:12:42;;;;;;;42.93;18.73;;;8.50;99.90;;;;;;8234876;28;20068;-70
2020/12/16 07:16:45;;;;;;;49.43;19.13;;;8.40;99.90;;;;;;8217904;28;20096;-71
2020/12/16 07:20:47;;;;;;;47.13;18.58;;;8.60;99.90;;;;;;8234766;28;20057;-70
2020/12/16 07:24:55;;;;;;;41.13;18.27;;;8.50;99.90;;;;;;8238823;28;20144;-71
2020/12/16 07:28:58;;;;;;;42.05;17.77;;;8.60;99.90;;;;;;8234769;28;20062;-70
2020/12/16 07:33:14;;;;;;;38.88;17.25;;;8.50;99.90;;;;;;8236145;28;20042;-70
2020/12/16 07:37:18;;;;;;;39.17;17.92;;;8.50;99.90;;;;;;8222625;28;20049;-70
2020/12/16 07:41:29;;;;;;;37.10;16.40;;;8.60;99.90;;;;;;8253529;28;20112;-69
2020/12/16 07:45:31;;;;;;;40.67;16.38;;;8.80;99.90;;;;;;8248242;28;20389;-70
2020/12/16 07:49:32;;;;;;;39.43;15.87;;;8.80;99.90;;;;;;8238416;28;20455;-70
2020/12/16 07:53:47;;;;;;;42.57;16.97;;;8.60;99.90;;;;;;8236428;28;20058;-70
2020/12/16 07:57:49;;;;;;;36.20;16.10;;;8.60;99.90;;;;;;8255364;28;20566;-69
2020/12/16 08:01:50;;;;;;;35.83;17.13;;;8.60;99.90;;;;;;8233930;28;20050;-69
2020/12/16 08:05:57;;;;;;;32.87;15.33;;;8.50;99.90;;;;;;8253625;28;20047;-70
2020/12/16 08:10:04;;;;;;;33.60;16.27;;;8.50;99.90;;;;;;8240195;28;20480;-70
2020/12/16 08:14:07;;;;;;;39.17;17.02;;;8.40;99.90;;;;;;8234437;28;20120;-70
2020/12/16 08:18:15;;;;;;;38.83;15.63;;;8.60;99.90;;;;;;8242221;28;20038;-69
2020/12/16 08:22:16;;;;;;;39.60;16.27;;;8.60;99.90;;;;;;8242761;28;20077;-70
2020/12/16 08:26:20;;;;;;;35.45;15.65;;;8.50;99.90;;;;;;8241470;28;20049;-70
2020/12/16 08:30:24;;;;;;;40.75;15.65;;;8.40;99.90;;;;;;8255815;28;20116;-69
2020/12/16 08:34:27;;;;;;;46.38;16.77;;;8.40;99.90;;;;;;8262896;28;20050;-70
2020/12/16 08:38:32;;;;;;;38.85;16.63;;;8.50;99.90;;;;;;8259011;28;20046;-70
2020/12/16 08:42:33;;;;;;;37.15;16.83;;;8.50;99.90;;;;;;8262375;28;20495;-68
2020/12/16 08:46:39;;;;;;;35.20;17.27;;;8.70;99.90;;;;;;8255629;28;20108;-68
2020/12/16 08:50:41;;;;;;;34.35;17.30;;;8.40;99.90;;;;;;8250548;28;20487;-68
2020/12/16 08:54:44;;;;;;;40.72;16.63;;;8.20;99.90;;;;;;8259021;28;20511;-68
2020/12/16 08:58:58;;;;;;;35.33;16.80;;;8.10;99.90;;;;;;8254031;28;20046;-70
2020/12/16 09:03:11;;;;;;;37.50;17.15;;;7.60;99.90;;;;;;8240995;28;20089;-70
2020/12/16 09:07:23;;;;;;;34.05;16.70;;;8.00;99.90;;;;;;8215295;28;20049;-70
2020/12/16 09:11:24;;;;;;;38.08;15.75;;;8.00;99.90;;;;;;8255092;28;20883;-70
2020/12/16 09:15:26;;;;;;;35.47;16.42;;;8.00;99.90;;;;;;8265532;28;20065;-70
2020/12/16 09:19:27;;;;;;;39.43;17.67;;;7.90;99.90;;;;;;8250035;28;20080;-70
2020/12/16 09:23:29;;;;;;;38.85;16.27;;;8.00;99.90;;;;;;8238870;28;20074;-70
2020/12/16 09:27:31;;;;;;;37.47;15.68;;;8.00;99.90;;;;;;8235921;28;20125;-70
2020/12/16 09:31:32;;;;;;;39.38;16.30;;;8.20;99.90;;;;;;8241682;28;20112;-70
2020/12/16 09:35:34;;;;;;;37.13;15.23;;;8.10;99.90;;;;;;8256738;28;20054;-70
2020/12/16 09:39:35;;;;;;;27.50;14.43;;;8.10;99.90;;;;;;8237153;28;20050;-70
2020/12/16 09:43:40;;;;;;;34.33;15.27;;;8.10;99.90;;;;;;8235875;28;20378;-70
2020/12/16 09:47:43;;;;;;;31.90;15.10;;;8.30;99.90;;;;;;8255768;28;20081;-71
2020/12/16 09:51:44;;;;;;;29.98;14.27;;;8.20;99.90;;;;;;8249472;28;20506;-69
2020/12/16 09:55:46;;;;;;;31.58;13.10;;;8.20;99.90;;;;;;8236395;28;20046;-70
2020/12/16 09:59:48;;;;;;;;;;;8.30;99.90;;;;;;8235168;28;20475;-70
2020/12/16 10:03:50;;;;;;;29.60;14.13;;;8.20;99.90;;;;;;8227234;28;19977;-70
2020/12/16 10:07:52;;;;;;;31.83;13.00;;;8.40;99.90;;;;;;8251519;28;20079;-70
2020/12/16 10:11:54;;;;;;;;;;;8.30;99.90;;;;;;8256904;28;20053;-70
2020/12/16 10:15:55;;;;;;;27.70;12.65;;;8.00;99.90;;;;;;8241829;28;19922;-69
2020/12/16 10:19:59;;;;;;;28.23;12.53;;;8.30;99.90;;;;;;8253159;28;20054;-70
2020/12/16 10:24:00;;;;;;;30.20;13.93;;;8.50;99.90;;;;;;8209132;28;20042;-70
2020/12/16 10:28:01;;;;;;;26.07;12.60;;;8.30;99.90;;;;;;8257063;28;20053;-70
2020/12/16 10:32:04;;;;;;;27.33;12.00;;;8.50;99.90;;;;;;8253097;28;20038;-71
2020/12/16 10:36:05;;;;;;;28.25;12.07;;;8.20;99.90;;;;;;8236611;28;20056;-71
2020/12/16 10:40:09;;;;;;;23.70;12.60;;;8.30;99.90;;;;;;8262445;28;20322;-70
2020/12/16 10:44:10;;;;;;;31.85;13.85;;;8.30;99.90;;;;;;8252715;28;20058;-70
2020/12/16 10:48:14;;;;;;;31.83;13.95;;;8.40;99.90;;;;;;8249490;28;20077;-70
2020/12/16 10:52:18;;;;;;;28.13;13.27;;;8.40;99.90;;;;;;8224397;28;20077;-70
2020/12/16 10:56:19;;;;;;;27.23;13.70;;;8.50;99.90;;;;;;8227179;28;20563;-70
2020/12/16 11:00:22;;;;;;;26.52;13.80;;;8.60;99.90;;;;;;8222019;28;20128;-70
2020/12/16 11:04:23;;;;;;;32.93;14.60;;;8.90;99.90;;;;;;8242999;28;20570;-70
2020/12/16 11:08:25;;;;;;;30.50;14.25;;;8.40;99.90;;;;;;8239999;28;20455;-70
2020/12/16 11:12:27;;;;;;;31.80;14.97;;;8.50;99.90;;;;;;8227312;28;22160;-69
2020/12/16 11:16:30;;;;;;;32.20;15.60;;;8.30;99.90;;;;;;8259941;28;20305;-70
2020/12/16 11:20:31;;;;;;;34.42;15.55;;;8.40;99.90;;;;;;8248688;28;20053;-70
2020/12/16 11:24:33;;;;;;;28.27;14.03;;;8.40;99.90;;;;;;8233717;28;20518;-70
2020/12/16 11:28:34;;;;;;;29.90;15.47;;;8.50;99.90;;;;;;8233089;28;20046;-69
2020/12/16 11:32:36;;;;;;;30.67;15.35;;;8.40;99.90;;;;;;8259910;28;20054;-70
2020/12/16 11:36:43;;;;;;;31.00;15.97;;;8.50;99.90;;;;;;8229760;28;20050;-71
2020/12/16 11:40:44;;;;;;;29.35;15.18;;;8.50;99.90;;;;;;8250568;28;20100;-70
2020/12/16 11:44:45;;;;;;;28.67;14.70;;;8.60;99.90;;;;;;8250368;28;20046;-69
2020/12/16 11:48:49;;;;;;;28.13;14.40;;;8.70;99.90;;;;;;8239840;28;20061;-69
2020/12/16 11:53:06;;;;;;;25.80;14.00;;;8.60;99.90;;;;;;8217374;28;20473;-70
2020/12/16 11:57:07;;;;;;;35.93;15.47;;;8.80;99.90;;;;;;8254095;28;20045;-69
2020/12/16 12:01:16;;;;;;;24.97;14.23;;;8.70;99.90;;;;;;8245161;28;20046;-69
2020/12/16 12:05:17;;;;;;;31.52;15.43;;;9.50;99.90;;;;;;8248948;28;20196;-69
2020/12/16 12:09:20;;;;;;;29.00;14.90;;;8.90;99.90;;;;;;8244450;28;20578;-69
2020/12/16 12:13:21;;;;;;;28.10;14.55;;;8.90;99.90;;;;;;8258330;28;20523;-69
2020/12/16 12:17:23;;;;;;;32.23;13.93;;;8.90;99.90;;;;;;8251779;28;20046;-69
2020/12/16 12:21:24;;;;;;;28.13;14.53;;;9.20;99.90;;;;;;8251433;28;20050;-70
2020/12/16 12:25:25;;;;;;;30.23;14.83;;;9.20;99.90;;;;;;8228935;28;20058;-70
2020/12/16 12:29:27;;;;;;;32.23;16.50;;;9.10;99.90;;;;;;8241267;28;20278;-70
2020/12/16 12:33:28;;;;;;;33.43;16.10;;;9.30;99.90;;;;;;8255145;28;20120;-70
2020/12/16 12:37:31;;;;;;;33.88;16.02;;;9.30;99.90;;;;;;8256255;28;20042;-69
2020/12/16 12:41:32;;;;;;;30.50;16.20;;;9.10;99.90;;;;;;8253863;28;20052;-69
2020/12/16 12:45:34;;;;;;;28.90;15.57;;;9.30;99.90;;;;;;8264635;28;20038;-70
2020/12/16 12:49:35;;;;;;;28.20;16.40;;;9.00;99.90;;;;;;8235655;28;20041;-70
2020/12/16 12:53:37;;;;;;;27.87;16.07;;;9.10;99.90;;;;;;8247367;28;20829;-69
2020/12/16 12:57:40;;;;;;;32.65;16.52;;;9.20;99.90;;;;;;8243878;28;20127;-70
2020/12/16 13:01:41;;;;;;;32.17;16.27;;;9.10;99.90;;;;;;8216334;28;20065;-70
2020/12/16 13:05:43;;;;;;;33.03;16.80;;;9.10;99.90;;;;;;8257201;28;20045;-70
2020/12/16 13:09:44;;;;;;;33.10;15.83;;;9.10;99.90;;;;;;8245948;28;20046;-70
2020/12/16 13:13:46;;;;;;;29.67;15.43;;;9.20;99.90;;;;;;8260509;28;20045;-70
2020/12/16 13:17:47;;;;;;;33.33;15.93;;;9.20;99.90;;;;;;8256238;28;20061;-70
2020/12/16 13:21:50;;;;;;;29.67;15.73;;;9.30;99.90;;;;;;8248840;28;20475;-70
2020/12/16 13:25:51;;;;;;;30.52;16.38;;;9.00;99.90;;;;;;8271495;28;20158;-70
2020/12/16 13:29:53;;;;;;;30.87;16.40;;;9.20;99.90;;;;;;8209200;28;20097;-70
2020/12/16 13:33:54;;;;;;;32.00;15.45;;;9.20;99.90;;;;;;8256069;28;20049;-70
2020/12/16 13:37:56;;;;;;;33.93;16.60;;;9.20;99.90;;;;;;8259297;28;20041;-71
2020/12/16 13:41:59;;;;;;;35.08;15.82;;;9.10;99.90;;;;;;8264151;28;20066;-69
2020/12/16 13:46:00;;;;;;;33.17;16.25;;;9.00;99.90;;;;;;8235967;28;20100;-70
2020/12/16 13:50:02;;;;;;;31.70;15.80;;;9.10;99.90;;;;;;8261847;28;20419;-70
2020/12/16 13:54:04;;;;;;;32.58;17.65;;;9.20;99.90;;;;;;8257734;28;20072;-70
2020/12/16 13:58:05;;;;;;;32.20;16.87;;;9.00;99.90;;;;;;8249505;28;20053;-70
2020/12/16 14:02:12;;;;;;;31.63;15.15;;;8.90;99.90;;;;;;8255279;28;20085;-70
2020/12/16 14:06:13;;;;;;;30.17;15.90;;;8.90;99.90;;;;;;8256034;28;20061;-70
2020/12/16 14:10:14;;;;;;;32.13;16.97;;;8.90;99.90;;;;;;8255406;28;20068;-70
2020/12/16 14:14:16;;;;;;;46.90;27.60;;;8.90;99.90;;;;;;8233004;28;20066;-70
2020/12/16 14:18:17;;;;;;;33.37;17.90;;;8.90;99.90;;;;;;8224341;28;20052;-69
2020/12/16 14:22:19;;;;;;;49.80;26.13;;;9.00;99.90;;;;;;8244284;28;20464;-70
2020/12/16 14:26:20;;;;;;;38.90;20.53;;;8.90;99.90;;;;;;8254299;28;20072;-70
2020/12/16 14:30:22;;;;;;;43.13;22.13;;;8.90;99.90;;;;;;8236122;28;20041;-70
2020/12/16 14:34:23;;;;;;;36.10;18.13;;;8.90;99.90;;;;;;8230527;28;20560;-70
2020/12/16 14:38:25;;;;;;;42.70;21.77;;;9.10;99.90;;;;;;8249093;28;20424;-70
2020/12/16 14:42:26;;;;;;;38.47;19.33;;;8.90;99.90;;;;;;8248337;28;20420;-70
2020/12/16 14:46:28;;;;;;;41.13;19.58;;;8.90;99.90;;;;;;8215101;28;20112;-70
2020/12/16 14:50:29;;;;;;;43.50;19.37;;;8.70;99.90;;;;;;8242640;28;20061;-69
2020/12/16 14:54:31;;;;;;;46.07;26.20;;;8.70;99.90;;;;;;8231556;28;20058;-70
2020/12/16 14:58:32;;;;;;;45.10;18.33;;;8.50;99.90;;;;;;8256655;28;20288;-70
2020/12/16 15:02:39;;;;;;;37.92;18.65;;;8.50;99.90;;;;;;8252990;28;20048;-71
2020/12/16 15:06:41;;;;;;;39.03;17.90;;;8.60;99.90;;;;;;8231451;28;20038;-70
2020/12/16 15:10:42;;;;;;;37.80;18.47;;;8.30;99.90;;;;;;8245070;28;20054;-70
2020/12/16 15:14:43;;;;;;;42.40;21.23;;;8.40;99.90;;;;;;8200410;28;20058;-70
2020/12/16 15:18:45;;;;;;;40.33;20.83;;;8.30;99.90;;;;;;8251548;28;20667;-70
2020/12/16 15:22:46;;;;;;;35.40;18.03;;;8.40;99.90;;;;;;8232978;28;20038;-70
2020/12/16 15:26:50;;;;;;;35.35;17.30;;;8.30;99.90;;;;;;8260694;28;20054;-70
2020/12/16 15:30:52;;;;;;;34.25;17.77;;;8.20;99.90;;;;;;8238849;28;20054;-70
2020/12/16 15:34:53;;;;;;;32.33;16.50;;;8.20;99.90;;;;;;8243188;28;20046;-71
2020/12/16 15:38:55;;;;;;;32.20;16.70;;;8.40;99.90;;;;;;8247493;28;20050;-70
2020/12/16 15:42:57;;;;;;;;;;;7.70;99.90;;;;;;8254461;28;20046;-71
2020/12/16 15:46:58;;;;;;;37.83;15.65;;;8.00;99.90;;;;;;8264185;28;19952;-71
2020/12/16 15:51:00;;;;;;;;;;;7.90;99.90;;;;;;8236145;28;20510;-70
2020/12/16 15:55:02;;;;;;;31.60;15.27;;;8.00;99.90;;;;;;8230810;28;19925;-71
2020/12/16 15:59:05;;;;;;;28.88;15.15;;;8.20;99.90;;;;;;8253236;28;20081;-70
2020/12/16 16:03:15;;;;;;;33.60;16.23;;;7.80;99.90;;;;;;8238828;28;20058;-70
2020/12/16 16:07:16;;;;;;;30.70;16.73;;;7.80;99.90;;;;;;8244119;28;20143;-70
2020/12/16 16:11:18;;;;;;;30.30;16.23;;;7.80;99.90;;;;;;8243206;28;20054;-70
2020/12/16 16:15:19;;;;;;;34.80;15.43;;;7.90;99.90;;;;;;8240244;28;20152;-71
2020/12/16 16:19:21;;;;;;;33.83;16.57;;;8.30;99.90;;;;;;8244879;28;20050;-70
2020/12/16 16:23:23;;;;;;;34.53;17.10;;;8.00;99.90;;;;;;8243080;28;20041;-71
2020/12/16 16:27:25;;;;;;;31.38;17.27;;;8.00;99.90;;;;;;8240681;28;20061;-70
2020/12/16 16:31:26;;;;;;;30.37;16.40;;;7.80;99.90;;;;;;8262116;28;20076;-70
2020/12/16 16:35:29;;;;;;;36.43;17.63;;;7.70;99.90;;;;;;8255273;28;20061;-71
2020/12/16 16:39:30;;;;;;;31.85;17.15;;;8.00;99.90;;;;;;8266012;28;20420;-71
2020/12/16 16:43:32;;;;;;;32.17;17.23;;;7.80;99.90;;;;;;8241906;28;20057;-71
2020/12/16 16:47:38;;;;;;;32.30;17.80;;;7.90;99.90;;;;;;8243745;28;20299;-71
2020/12/16 16:51:42;;;;;;;39.92;18.38;;;7.80;99.90;;;;;;8256333;28;20057;-70
2020/12/16 16:55:43;;;;;;;38.13;19.15;;;7.60;99.90;;;;;;8244501;28;20073;-71
2020/12/16 16:59:47;;;;;;;43.63;22.27;;;6.70;99.90;;;;;;8226759;28;20704;-70
2020/12/16 17:03:49;;;;;;;41.63;21.77;;;7.60;99.90;;;;;;8257734;28;20112;-70
2020/12/16 17:07:50;;;;;;;47.47;23.30;;;7.60;99.90;;;;;;8248571;28;20459;-71
2020/12/16 17:11:51;;;;;;;46.17;23.30;;;7.50;99.90;;;;;;8222171;28;20531;-70
2020/12/16 17:15:53;;;;;;;49.53;24.67;;;7.40;99.90;;;;;;8229231;28;20708;-69
2020/12/16 17:19:54;;;;;;;48.63;23.00;;;7.50;99.90;;;;;;8235604;28;20050;-70
2020/12/16 17:23:56;;;;;;;55.10;26.33;;;7.50;99.90;;;;;;8225330;28;20054;-70
2020/12/16 17:27:58;;;;;;;55.33;26.13;;;7.80;99.90;;;;;;8249035;28;20058;-71
2020/12/16 17:32:00;;;;;;;55.77;23.67;;;7.30;99.90;;;;;;8261858;28;20054;-71
2020/12/16 17:36:01;;;;;;;58.67;26.88;;;7.50;99.90;;;;;;8255332;28;20045;-71
2020/12/16 17:40:04;;;;;;;63.37;25.90;;;7.20;99.90;;;;;;8204694;28;20054;-71
2020/12/16 17:44:06;;;;;;;58.95;26.23;;;7.20;99.90;;;;;;8236865;28;20052;-71
2020/12/16 17:48:08;;;;;;;63.70;27.17;;;7.30;99.90;;;;;;8239713;28;20037;-71
2020/12/16 17:52:09;;;;;;;55.97;25.03;;;7.20;99.90;;;;;;8259479;28;20478;-71
2020/12/16 17:56:11;;;;;;;59.23;26.00;;;7.20;99.90;;;;;;8241867;28;20471;-71
2020/12/16 18:00:13;;;;;;;55.78;23.77;;;7.30;99.90;;;;;;8254987;28;20074;-71
2020/12/16 18:04:33;;;;;;;61.85;27.45;;;7.20;99.90;;;;;;8244945;28;20420;-71
2020/12/16 18:08:35;;;;;;;;;;;7.20;99.90;;;;;;8257881;28;20050;-71
2020/12/16 18:12:38;;;;;;;55.63;24.73;;;7.20;99.90;;;;;;8231759;28;20400;-71
2020/12/16 18:16:40;;;;;;;58.30;25.10;;;7.70;99.90;;;;;;8240187;28;20061;-72
2020/12/16 18:20:41;;;;;;;57.40;24.27;;;7.30;99.90;;;;;;8239023;28;20534;-72
2020/12/16 18:24:43;;;;;;;48.55;23.73;;;7.50;99.90;;;;;;8220988;28;20054;-71
2020/12/16 18:28:45;;;;;;;47.95;23.42;;;7.20;99.90;;;;;;8264223;28;20836;-71
2020/12/16 18:32:47;;;;;;;48.53;24.00;;;7.40;99.90;;;;;;8250782;28;20085;-71
2020/12/16 18:36:50;;;;;;;49.88;22.17;;;7.40;99.90;;;;;;8239337;28;20050;-71
2020/12/16 18:40:52;;;;;;;42.75;20.83;;;6.90;99.90;;;;;;8253354;28;20054;-72
2020/12/16 18:44:54;;;;;;;48.30;22.67;;;7.50;99.90;;;;;;8258903;28;20107;-70
2020/12/16 18:48:56;;;;;;;52.15;24.77;;;7.00;99.90;;;;;;8263510;28;20054;-71
2020/12/16 18:52:57;;;;;;;47.47;24.40;;;7.30;99.90;;;;;;8254651;28;20054;-71
2020/12/16 18:56:59;;;;;;;47.17;22.97;;;7.20;99.90;;;;;;8239801;28;20042;-71
2020/12/16 19:01:03;;;;;;;47.70;21.98;;;7.00;99.90;;;;;;8253373;28;20054;-71
2020/12/16 19:05:14;;;;;;;;;;;7.00;99.90;;;;;;8247168;28;20570;-70
2020/12/16 19:09:16;;;;;;;38.90;19.10;;;7.00;99.90;;;;;;8226439;28;21022;-70
2020/12/16 19:13:19;;;;;;;37.80;18.93;;;6.90;99.90;;;;;;8237031;28;20073;-71
2020/12/16 19:17:21;;;;;;;37.75;16.65;;;7.30;99.90;;;;;;8256905;28;20052;-71
2020/12/16 19:21:22;;;;;;;39.30;20.20;;;7.20;99.90;;;;;;8243837;28;20068;-70
2020/12/16 19:25:23;;;;;;;45.70;20.03;;;7.00;99.90;;;;;;8260052;28;20479;-72
2020/12/16 19:29:25;;;;;;;48.53;20.17;;;7.10;99.90;;;;;;8243053;28;20064;-70
2020/12/16 19:33:28;;;;;;;41.78;18.92;;;7.00;99.90;;;;;;8243639;28;20049;-70
2020/12/16 19:37:31;;;;;;;47.75;19.45;;;6.90;99.90;;;;;;8250296;28;20049;-71
2020/12/16 19:41:34;;;;;;;43.00;19.42;;;6.90;99.90;;;;;;8265958;28;20100;-71
2020/12/16 19:45:35;;;;;;;49.13;20.15;;;7.20;99.90;;;;;;8255461;28;20500;-72
2020/12/16 19:49:37;;;;;;;47.17;19.00;;;7.10;99.90;;;;;;8227761;28;20520;-71
2020/12/16 19:53:38;;;;;;;47.30;20.80;;;7.00;99.90;;;;;;8253885;28;20034;-72
2020/12/16 19:57:40;;;;;;;47.25;19.42;;;7.40;99.90;;;;;;8247098;28;20058;-72
2020/12/16 20:01:48;;;;;;;52.05;19.95;;;7.30;99.90;;;;;;8248899;28;20053;-71
2020/12/16 20:05:56;;;;;;;56.65;21.77;;;7.20;99.90;;;;;;8245981;28;20049;-71
2020/12/16 20:09:57;;;;;;;51.22;20.65;;;7.10;99.90;;;;;;8240749;28;20046;-71
2020/12/16 20:13:59;;;;;;;55.38;22.38;;;7.20;99.90;;;;;;8242071;28;20046;-72
2020/12/16 20:18:01;;;;;;;51.08;20.35;;;7.10;99.90;;;;;;8239900;28;20100;-72
2020/12/16 20:22:04;;;;;;;50.95;21.73;;;7.20;99.90;;;;;;8221766;28;20047;-72
2020/12/16 20:26:06;;;;;;;52.95;20.85;;;7.50;99.90;;;;;;8242312;28;20073;-71
2020/12/16 20:30:07;;;;;;;50.77;21.30;;;7.30;99.90;;;;;;8230619;28;20062;-71
2020/12/16 20:34:10;;;;;;;49.55;19.52;;;7.60;99.90;;;;;;8248165;28;20308;-72
2020/12/16 20:38:11;;;;;;;51.92;22.27;;;7.40;99.90;;;;;;8259630;28;20050;-72
2020/12/16 20:42:12;;;;;;;51.65;21.77;;;7.30;99.90;;;;;;8246653;28;20423;-72
2020/12/16 20:46:14;;;;;;;46.87;20.57;;;7.50;99.90;;;;;;8253457;28;20147;-71
2020/12/16 20:50:18;;;;;;;45.78;20.30;;;7.30;99.90;;;;;;8256022;28;20057;-72
2020/12/16 20:54:20;;;;;;;50.15;21.40;;;7.30;99.90;;;;;;8264336;28;20633;-71
2020/12/16 20:58:22;;;;;;;45.80;21.00;;;7.50;99.90;;;;;;8227956;28;20050;-71
2020/12/16 21:02:23;;;;;;;47.93;21.63;;;7.80;99.90;;;;;;8236005;28;20050;-71